This is the latest recevied weather packets stored in our database for station/object JH1CWL-13. If no packets are shown the sender has not sent any weather packets the latest 10 day(s).
| Time | Temp. | Humidity | Pressure | Rain* | Wind** | Luminosity | Snow |
|---|---|---|---|---|---|---|---|
| 1777978691 | 15° C | 63% | 1019.9 hPa | 0 mm | - | - | - |
| 1777977490 | 16.11° C | 56% | 1019.7 hPa | 0 mm | - | - | - |
| 1777976291 | 16.67° C | 54% | 1019.5 hPa | 0 mm | - | - | - |
| 1777975091 | 16.67° C | 53% | 1019.4 hPa | 0 mm | - | - | - |
| 1777973892 | 17.78° C | 50% | 1018.9 hPa | 0 mm | - | - | - |
| 1777972691 | 18.89° C | 45% | 1019 hPa | 0 mm | - | - | - |
| 1777971491 | 20.56° C | 43% | 1018.7 hPa | 0 mm | - | - | - |
| 1777970290 | 18.33° C | 50% | 1018.6 hPa | 0 mm | - | - | - |
| 1777969091 | 19.44° C | 45% | 1018.3 hPa | 0 mm | - | - | - |
| 1777967892 | 20° C | 43% | 1018.5 hPa | 0 mm | - | - | - |
| 1777966691 | 19.44° C | 43% | 1018.4 hPa | 0 mm | - | - | - |
| 1777965492 | 20° C | 42% | 1018.2 hPa | 0 mm | - | - | - |
| 1777964289 | 20.56° C | 42% | 1018.1 hPa | 0 mm | - | - | - |
| 1777963089 | 20.56° C | 39% | 1017.9 hPa | 0 mm | - | - | - |
| 1777961890 | 20° C | 42% | 1018 hPa | 0 mm | - | - | - |
| 1777960690 | 21.11° C | 38% | 1017.8 hPa | 0 mm | - | - | - |
| 1777959489 | 21.11° C | 34% | 1017.5 hPa | 0 mm | - | - | - |
| 1777958290 | 21.11° C | 31% | 1017.5 hPa | 0 mm | - | - | - |
| 1777906525 | 16.67° C | 49% | 1006.1 hPa | 0 mm | - | - | - |
| 1777905325 | 16.67° C | 50% | 1005.7 hPa | 0 mm | - | - | - |
| 1777900525 | 18.89° C | 45% | 1003.8 hPa | 0 mm | - | - | - |
| 1777898125 | 19.44° C | 44% | 1002.7 hPa | 0 mm | - | - | - |
| 1777896926 | 19.44° C | 51% | 1002.5 hPa | 0 mm | - | - | - |
| 1777895726 | 19.44° C | 55% | 1001.8 hPa | 0 mm | - | - | - |
| 1777893324 | 19.44° C | 57% | 1000.7 hPa | 0 mm | - | - | - |
* Rain latest hour (hover to see other rain measurements)
** Current wind speed in m/s (hover to see current wind gust speed)